createdAt,value
2018-07-03T00:02:02.491Z,49.84
2018-07-03T00:04:31.920Z,50.47
2018-07-03T00:07:01.528Z,50.76
2018-07-03T00:09:31.646Z,50.25
2018-07-03T00:12:01.032Z,50.55
2018-07-03T00:14:29.628Z,50.63
2018-07-03T00:17:03.565Z,50.82
2018-07-03T00:19:32.506Z,50.27
2018-07-03T00:22:01.180Z,49.96
2018-07-03T00:24:30.494Z,50.43
2018-07-03T00:26:59.167Z,50.75
2018-07-03T00:29:28.202Z,50.77
2018-07-03T00:31:57.149Z,50.95
2018-07-03T00:34:25.988Z,50.65
2018-07-03T00:36:54.704Z,50.86
2018-07-03T00:39:24.413Z,50.63
2018-07-03T00:41:53.572Z,50.30
2018-07-03T00:44:22.322Z,51.03
2018-07-03T00:46:50.997Z,51.32
2018-07-03T00:49:19.717Z,51.11
2018-07-03T00:51:48.614Z,51.34
2018-07-03T00:54:17.267Z,51.08
2018-07-03T00:56:46.344Z,51.21
2018-07-03T00:59:15.008Z,50.90
2018-07-03T01:01:43.655Z,50.78
2018-07-03T01:04:12.349Z,50.46
2018-07-03T01:06:41.126Z,51.04
2018-07-03T01:09:10.309Z,50.71
2018-07-03T01:11:40.467Z,50.86
2018-07-03T01:14:09.284Z,50.79
2018-07-03T01:16:37.974Z,51.17
2018-07-03T01:19:06.706Z,51.49
2018-07-03T01:21:35.394Z,51.25
2018-07-03T01:24:04.114Z,50.71
2018-07-03T01:26:33.335Z,51.48
2018-07-03T01:29:02.019Z,51.12
2018-07-03T01:31:30.714Z,51.07
2018-07-03T01:33:59.447Z,51.03
2018-07-03T01:36:28.468Z,51.18
2018-07-03T01:38:57.227Z,50.72
2018-07-03T01:41:25.878Z,50.60
2018-07-03T01:43:54.846Z,50.89
2018-07-03T01:46:23.460Z,51.27
2018-07-03T01:48:52.147Z,51.14
2018-07-03T01:51:20.900Z,51.66
2018-07-03T01:53:49.781Z,51.75
2018-07-03T01:56:18.548Z,51.58
2018-07-03T01:58:47.177Z,51.67
2018-07-03T02:01:15.928Z,51.77
2018-07-03T02:03:44.664Z,51.64
2018-07-03T02:06:13.345Z,51.24
2018-07-03T02:08:42.076Z,51.59
2018-07-03T02:11:10.814Z,51.85
2018-07-03T02:13:39.470Z,52.09
2018-07-03T02:16:08.495Z,51.70
2018-07-03T02:18:37.378Z,52.21
2018-07-03T02:21:06.291Z,51.97
2018-07-03T02:23:34.991Z,52.40
2018-07-03T02:26:03.697Z,51.81
2018-07-03T02:28:32.549Z,51.48
2018-07-03T02:31:02.094Z,51.46
2018-07-03T02:33:32.634Z,51.46
2018-07-03T02:36:01.951Z,51.12
2018-07-03T02:38:30.565Z,51.95
2018-07-03T02:40:59.583Z,51.65
2018-07-03T02:43:28.244Z,51.42
2018-07-03T02:45:57.361Z,51.79
2018-07-03T02:48:26.140Z,50.91
2018-07-03T02:50:55.421Z,51.45
2018-07-03T02:53:24.146Z,51.85
2018-07-03T02:55:53.227Z,51.65
2018-07-03T02:58:21.959Z,51.39
2018-07-03T03:00:50.671Z,51.38
2018-07-03T03:03:19.600Z,50.94
2018-07-03T03:05:48.322Z,51.88
2018-07-03T03:08:17.428Z,51.28
2018-07-03T03:10:46.153Z,50.68
2018-07-03T03:13:15.095Z,51.18
2018-07-03T03:15:44.050Z,50.57
2018-07-03T03:18:12.709Z,50.48
2018-07-03T03:20:41.356Z,51.33
2018-07-03T03:23:10.014Z,51.09
2018-07-03T03:25:38.765Z,50.73
2018-07-03T03:28:07.579Z,50.72
2018-07-03T03:30:36.281Z,50.82
2018-07-03T03:33:05.455Z,51.08
2018-07-03T03:35:34.279Z,50.55
2018-07-03T03:38:02.932Z,50.76
2018-07-03T03:40:31.925Z,51.08
2018-07-03T03:43:00.587Z,51.16
2018-07-03T03:45:30.036Z,50.85
2018-07-03T03:47:59.085Z,50.62
2018-07-03T03:50:27.706Z,50.66
2018-07-03T03:52:56.732Z,50.40
2018-07-03T03:55:25.478Z,50.77
2018-07-03T03:57:54.143Z,50.98
2018-07-03T04:00:22.786Z,51.31
2018-07-03T04:02:51.657Z,50.99
2018-07-03T04:05:20.435Z,51.27
2018-07-03T04:07:49.085Z,51.12
2018-07-03T04:10:17.802Z,50.03
2018-07-03T04:12:46.522Z,50.36
2018-07-03T04:15:15.199Z,50.64
2018-07-03T04:17:43.977Z,50.83
2018-07-03T04:20:12.664Z,50.95
2018-07-03T04:22:41.344Z,51.12
2018-07-03T04:25:10.078Z,50.31
2018-07-03T04:27:39.234Z,51.13
2018-07-03T04:30:07.984Z,51.01
2018-07-03T04:32:37.172Z,51.28
2018-07-03T04:35:06.966Z,50.90
2018-07-03T04:37:35.781Z,51.14
2018-07-03T04:40:04.935Z,50.76
2018-07-03T04:42:33.638Z,51.28
2018-07-03T04:45:02.403Z,51.04
2018-07-03T04:47:31.817Z,51.87
2018-07-03T04:50:00.851Z,51.27
2018-07-03T04:52:30.028Z,52.10
2018-07-03T04:54:58.886Z,51.03
2018-07-03T04:57:27.611Z,50.49
2018-07-03T04:59:56.304Z,51.67
2018-07-03T05:02:25.045Z,50.63
2018-07-03T05:04:54.459Z,50.32
2018-07-03T05:07:23.609Z,50.57
2018-07-03T05:09:52.272Z,50.52
2018-07-03T05:12:21.267Z,50.52
2018-07-03T05:14:50.059Z,51.03
2018-07-03T05:17:19.151Z,49.47
2018-07-03T05:19:47.907Z,50.21
2018-07-03T05:22:16.604Z,51.30
2018-07-03T05:24:45.404Z,51.67
2018-07-03T05:27:14.009Z,51.05
2018-07-03T05:29:43.043Z,51.00
2018-07-03T05:32:12.541Z,49.98
2018-07-03T05:34:41.261Z,51.64
2018-07-03T05:37:09.912Z,51.74
2018-07-03T05:39:38.616Z,49.26
2018-07-03T05:42:07.240Z,52.21
2018-07-03T05:44:36.121Z,48.31
2018-07-03T05:47:04.997Z,47.55
2018-07-03T05:49:33.617Z,47.65
2018-07-03T05:52:02.422Z,49.39
2018-07-03T05:54:31.338Z,48.71
2018-07-03T05:56:59.962Z,47.14
2018-07-03T05:59:28.675Z,48.61
2018-07-03T06:01:57.392Z,47.53
2018-07-03T06:04:26.189Z,49.24
2018-07-03T06:06:55.018Z,49.37
2018-07-03T06:09:23.997Z,51.51
2018-07-03T06:11:52.880Z,48.51
2018-07-03T06:14:21.599Z,49.71
2018-07-03T06:16:54.450Z,50.57
2018-07-03T06:19:24.003Z,48.69
2018-07-03T06:21:53.807Z,49.05
2018-07-03T06:24:22.562Z,50.13
2018-07-03T06:26:51.407Z,48.22
2018-07-03T06:29:22.481Z,46.70
2018-07-03T06:31:51.523Z,46.56
2018-07-03T06:34:20.931Z,48.01
2018-07-03T06:36:49.710Z,48.02
2018-07-03T06:39:18.588Z,49.91
2018-07-03T06:41:47.523Z,50.25
2018-07-03T06:44:16.860Z,54.72
2018-07-03T06:46:45.791Z,50.91
2018-07-03T06:49:14.916Z,50.71
2018-07-03T06:51:43.633Z,44.90
2018-07-03T06:54:13.077Z,46.40
2018-07-03T06:56:42.168Z,45.58
2018-07-03T06:59:11.074Z,40.93
2018-07-03T07:01:40.122Z,41.69
2018-07-03T07:04:08.755Z,42.00
2018-07-03T07:06:37.454Z,41.85
2018-07-03T07:09:08.601Z,41.14
2018-07-03T07:11:37.428Z,39.98
2018-07-03T07:14:06.380Z,39.78
2018-07-03T07:16:35.576Z,38.25
2018-07-03T07:19:04.560Z,38.37
2018-07-03T07:21:33.462Z,37.71
2018-07-03T07:24:02.295Z,34.95
2018-07-03T07:26:31.371Z,37.21
2018-07-03T07:29:00.047Z,36.18
2018-07-03T07:31:28.803Z,35.46
2018-07-03T07:33:57.913Z,35.15
2018-07-03T07:36:26.962Z,33.75
2018-07-03T07:38:55.984Z,30.80
2018-07-03T07:41:24.737Z,32.81
2018-07-03T07:43:53.631Z,33.08
2018-07-03T07:46:22.385Z,33.66
2018-07-03T07:48:51.157Z,33.81
2018-07-03T07:51:19.915Z,34.54
2018-07-03T07:53:48.714Z,31.58
2018-07-03T07:56:17.499Z,31.73
2018-07-03T07:58:46.593Z,32.15
2018-07-03T08:01:15.375Z,33.42
2018-07-03T08:03:44.323Z,33.74
2018-07-03T08:06:13.044Z,31.50
2018-07-03T08:08:41.944Z,33.50
2018-07-03T08:11:10.993Z,31.95
2018-07-03T08:13:40.293Z,34.60
2018-07-03T08:16:08.978Z,33.48
2018-07-03T08:18:37.654Z,33.14
2018-07-03T08:21:06.558Z,32.16
2018-07-03T08:23:35.250Z,30.59
2018-07-03T08:26:04.125Z,28.82
2018-07-03T08:28:32.786Z,28.27
2018-07-03T08:31:01.470Z,28.72
2018-07-03T08:33:30.157Z,28.27
2018-07-03T08:35:58.853Z,25.82
2018-07-03T08:38:27.583Z,25.86
2018-07-03T08:40:56.581Z,26.02
2018-07-03T08:43:25.356Z,25.20
2018-07-03T08:45:54.351Z,24.99
2018-07-03T08:48:23.010Z,26.71
2018-07-03T08:50:51.738Z,25.41
2018-07-03T08:53:20.376Z,26.05
2018-07-03T08:55:49.622Z,24.92
2018-07-03T08:58:18.535Z,22.36
2018-07-03T09:00:47.305Z,23.68
2018-07-03T09:03:15.976Z,23.74
2018-07-03T09:05:44.947Z,22.42
2018-07-03T09:08:14.170Z,24.04
2018-07-03T09:10:42.856Z,22.86
2018-07-03T09:13:11.993Z,23.45
2018-07-03T09:15:40.710Z,23.50
2018-07-03T09:18:09.536Z,22.70
2018-07-03T09:20:38.290Z,24.14
2018-07-03T09:23:07.126Z,21.43
2018-07-03T09:25:35.841Z,23.20
2018-07-03T09:28:04.621Z,22.93
2018-07-03T09:30:33.758Z,22.19
2018-07-03T09:33:02.525Z,23.05
2018-07-03T09:35:31.699Z,23.29
2018-07-03T09:38:00.516Z,24.25
2018-07-03T09:40:29.172Z,23.59
2018-07-03T09:42:57.974Z,23.92
2018-07-03T09:45:26.697Z,23.09
2018-07-03T09:47:55.467Z,25.69
2018-07-03T09:50:24.430Z,26.72
2018-07-03T09:52:53.069Z,25.62
2018-07-03T09:55:21.719Z,27.08
2018-07-03T09:57:50.825Z,28.21
2018-07-03T10:00:25.136Z,27.41
2018-07-03T10:02:53.827Z,27.70
2018-07-03T10:05:22.527Z,28.11
2018-07-03T10:07:51.708Z,27.34
2018-07-03T10:10:20.366Z,29.57
2018-07-03T10:12:49.226Z,27.92
2018-07-03T10:15:18.004Z,26.15
2018-07-03T10:17:46.756Z,28.40
2018-07-03T10:20:15.972Z,28.45
2018-07-03T10:22:44.715Z,30.13
2018-07-03T10:25:13.510Z,26.90
2018-07-03T10:27:42.406Z,27.03
2018-07-03T10:30:11.129Z,26.89
2018-07-03T10:32:39.855Z,27.29
2018-07-03T10:35:09.211Z,26.77
2018-07-03T10:37:38.309Z,28.67
2018-07-03T10:40:07.155Z,27.52
2018-07-03T10:42:35.887Z,29.34
2018-07-03T10:45:04.997Z,27.48
2018-07-03T10:47:33.857Z,27.50
2018-07-03T10:50:02.709Z,24.90
2018-07-03T10:52:31.496Z,26.01
2018-07-03T10:55:00.119Z,26.39
2018-07-03T10:57:28.788Z,28.53
2018-07-03T10:59:57.444Z,26.57
2018-07-03T11:02:26.201Z,24.34
2018-07-03T11:04:54.828Z,25.97
2018-07-03T11:07:23.877Z,26.36
2018-07-03T11:09:53.067Z,26.18
2018-07-03T11:12:21.966Z,26.28
2018-07-03T11:14:50.672Z,25.35
2018-07-03T11:17:19.408Z,25.94
2018-07-03T11:19:48.093Z,24.76
2018-07-03T11:22:16.817Z,26.78
2018-07-03T11:24:45.556Z,26.84
2018-07-03T11:27:14.368Z,26.27
2018-07-03T11:29:43.438Z,25.55
2018-07-03T11:32:12.177Z,25.63
2018-07-03T11:34:40.804Z,28.56
2018-07-03T11:37:09.514Z,25.14
2018-07-03T11:39:38.250Z,27.54
2018-07-03T11:42:07.214Z,26.96
2018-07-03T11:44:35.986Z,25.49
2018-07-03T11:47:04.711Z,21.41
2018-07-03T11:49:33.434Z,21.89
2018-07-03T11:52:02.876Z,20.43
2018-07-03T11:54:31.662Z,21.64
2018-07-03T11:57:00.514Z,23.77
2018-07-03T11:59:29.546Z,26.09
2018-07-03T12:01:58.326Z,21.77
2018-07-03T12:04:27.159Z,21.65
2018-07-03T12:06:56.835Z,21.90
2018-07-03T12:09:25.601Z,19.97
2018-07-03T12:11:54.874Z,18.80
2018-07-03T12:14:23.604Z,14.70
2018-07-03T12:16:52.683Z,14.75
2018-07-03T12:19:21.427Z,14.19
2018-07-03T12:21:50.310Z,11.80
2018-07-03T12:24:19.131Z,12.99
2018-07-03T12:26:48.113Z,10.82
2018-07-03T12:29:16.868Z,11.13
2018-07-03T12:31:45.647Z,12.33
2018-07-03T12:34:14.670Z,12.09
2018-07-03T12:36:43.397Z,10.59
2018-07-03T12:39:12.679Z,10.10
2018-07-03T12:41:41.356Z,12.97
2018-07-03T12:44:09.991Z,10.63
2018-07-03T12:46:38.938Z,9.69
2018-07-03T12:49:07.933Z,11.16
2018-07-03T12:51:36.712Z,10.11
2018-07-03T12:54:05.403Z,11.20
2018-07-03T12:56:34.306Z,11.93
2018-07-03T12:59:03.187Z,11.83
2018-07-03T13:01:31.987Z,13.31
2018-07-03T13:04:01.052Z,12.97
2018-07-03T13:06:29.779Z,9.90
2018-07-03T13:08:58.823Z,11.04
2018-07-03T13:11:27.550Z,9.35
2018-07-03T13:13:56.318Z,9.88
2018-07-03T13:16:25.625Z,7.93
2018-07-03T13:18:54.913Z,9.16
2018-07-03T13:21:23.899Z,9.88
2018-07-03T13:23:52.562Z,8.27
2018-07-03T13:26:21.304Z,12.62
2018-07-03T13:28:50.282Z,7.82
2018-07-03T13:31:19.116Z,10.94
2018-07-03T13:33:47.827Z,7.86
2018-07-03T13:36:16.813Z,9.79
2018-07-03T13:38:45.552Z,12.30
2018-07-03T13:41:14.514Z,8.21
2018-07-03T13:43:43.305Z,8.69
2018-07-03T13:46:12.754Z,11.61
2018-07-03T13:48:41.486Z,11.71
2018-07-03T13:51:10.235Z,9.02
2018-07-03T13:53:39.284Z,10.12
2018-07-03T13:56:08.119Z,10.73
2018-07-03T13:58:36.821Z,11.90
2018-07-03T14:01:05.602Z,9.88
2018-07-03T14:03:34.375Z,7.28
2018-07-03T14:06:03.025Z,11.00
2018-07-03T14:08:31.722Z,9.39
2018-07-03T14:11:00.353Z,14.19
2018-07-03T14:13:29.142Z,12.40
2018-07-03T14:15:58.302Z,14.34
2018-07-03T14:18:28.016Z,16.82
2018-07-03T14:20:58.888Z,17.91
2018-07-03T14:23:28.710Z,14.78
2018-07-03T14:25:57.351Z,17.24
2018-07-03T14:28:26.032Z,16.41
2018-07-03T14:30:55.042Z,15.54
2018-07-03T14:33:24.049Z,14.19
2018-07-03T14:35:52.738Z,16.67
2018-07-03T14:38:21.463Z,17.47
2018-07-03T14:40:50.250Z,16.62
2018-07-03T14:43:18.976Z,17.33
2018-07-03T14:45:47.766Z,18.32
2018-07-03T14:48:16.565Z,19.16
2018-07-03T14:50:45.323Z,18.80
2018-07-03T14:53:14.270Z,19.13
2018-07-03T14:55:43.412Z,19.01
2018-07-03T14:58:12.074Z,19.83
2018-07-03T15:00:41.125Z,19.50
2018-07-03T15:03:10.314Z,19.80
2018-07-03T15:05:39.086Z,20.56
2018-07-03T15:08:07.850Z,21.57
2018-07-03T15:10:36.521Z,20.79
2018-07-03T15:13:05.616Z,20.43
2018-07-03T15:15:34.299Z,21.76
2018-07-03T15:18:03.279Z,21.03
2018-07-03T15:20:32.029Z,21.63
2018-07-03T15:23:00.728Z,22.34
2018-07-03T15:25:29.458Z,22.03
2018-07-03T15:27:58.152Z,22.81
2018-07-03T15:30:26.838Z,21.08
2018-07-03T15:32:56.275Z,21.60
2018-07-03T15:35:25.064Z,22.60
2018-07-03T15:37:53.854Z,22.73
2018-07-03T15:40:22.802Z,21.96
2018-07-03T15:42:52.015Z,21.19
2018-07-03T15:45:20.736Z,22.36
2018-07-03T15:47:49.484Z,22.09
2018-07-03T15:50:18.531Z,22.44
2018-07-03T15:52:47.368Z,23.05
2018-07-03T15:55:16.081Z,22.85
2018-07-03T15:57:46.377Z,23.27
2018-07-03T16:00:15.693Z,22.37
2018-07-03T16:04:53.951Z,22.53
2018-07-03T16:07:33.539Z,22.65
2018-07-03T16:10:02.470Z,23.96
2018-07-03T16:12:31.243Z,23.17
2018-07-03T16:14:59.986Z,22.62
2018-07-03T16:17:28.761Z,23.54
2018-07-03T16:20:02.548Z,23.56
2018-07-03T16:22:31.507Z,24.36
2018-07-03T16:25:07.726Z,23.46
2018-07-03T16:27:36.442Z,24.79
2018-07-03T16:30:07.493Z,23.95
2018-07-03T16:32:36.515Z,23.99
2018-07-03T16:35:05.604Z,24.94
2018-07-03T16:37:34.693Z,22.67
2018-07-03T16:40:03.605Z,23.83
2018-07-03T16:42:32.335Z,23.64
2018-07-03T16:45:01.182Z,22.80
2018-07-03T16:47:30.081Z,25.07
2018-07-03T16:49:58.742Z,24.68
2018-07-03T16:52:27.539Z,25.45
2018-07-03T16:54:56.247Z,25.53
2018-07-03T16:57:25.087Z,25.12
2018-07-03T16:59:53.812Z,23.56
2018-07-03T17:02:22.448Z,24.89
2018-07-03T17:04:51.143Z,24.91
2018-07-03T17:07:19.882Z,26.02
2018-07-03T17:09:49.371Z,25.83
2018-07-03T17:12:18.303Z,24.42
2018-07-03T17:14:54.096Z,25.42
2018-07-03T17:17:23.208Z,24.84
2018-07-03T17:19:51.896Z,24.22
2018-07-03T17:22:21.656Z,25.36
2018-07-03T17:24:50.315Z,26.41
2018-07-03T17:27:19.161Z,26.01
2018-07-03T17:29:48.259Z,25.34
2018-07-03T17:32:17.783Z,25.78
2018-07-03T17:34:46.595Z,26.32
2018-07-03T17:37:15.232Z,26.49
2018-07-03T17:39:54.977Z,26.64
2018-07-03T17:42:35.820Z,26.69
2018-07-03T17:45:43.309Z,27.21
2018-07-03T17:48:13.288Z,26.45
2018-07-03T17:50:41.955Z,26.55
2018-07-03T17:53:10.826Z,26.80
2018-07-03T17:55:39.959Z,28.46
2018-07-03T17:58:08.967Z,27.48
2018-07-03T18:00:37.756Z,26.89
2018-07-03T18:03:06.509Z,27.42
2018-07-03T18:05:35.529Z,27.55
2018-07-03T18:08:04.305Z,27.52
2018-07-03T18:10:33.020Z,27.95
2018-07-03T18:13:02.108Z,27.07
2018-07-03T18:15:31.313Z,28.21
2018-07-03T18:18:00.188Z,28.48
2018-07-03T18:20:29.056Z,28.75
2018-07-03T18:22:57.850Z,28.05
2018-07-03T18:25:26.563Z,28.94
2018-07-03T18:27:55.301Z,28.23
2018-07-03T18:30:26.147Z,28.16
2018-07-03T18:32:55.612Z,27.92
2018-07-03T18:35:24.584Z,28.93
2018-07-03T18:37:53.401Z,29.30
2018-07-03T18:40:22.180Z,29.51
2018-07-03T18:42:51.157Z,29.67
2018-07-03T18:45:20.475Z,29.95
2018-07-03T18:47:49.156Z,29.97
2018-07-03T18:50:18.766Z,29.92
2018-07-03T18:52:47.569Z,29.96
2018-07-03T18:55:16.533Z,30.57
2018-07-03T18:57:45.895Z,30.84
2018-07-03T19:00:14.835Z,30.44
2018-07-03T19:02:43.946Z,30.86
2018-07-03T19:05:13.058Z,31.07
2018-07-03T19:07:41.872Z,31.10
2018-07-03T19:10:10.604Z,31.52
2018-07-03T19:12:39.334Z,32.01
2018-07-03T19:15:08.676Z,32.02
2018-07-03T19:17:37.915Z,32.23
2018-07-03T19:20:07.860Z,32.17
2018-07-03T19:22:36.687Z,32.48
2018-07-03T19:25:05.753Z,32.79
2018-07-03T19:27:35.069Z,32.44
2018-07-03T19:30:03.810Z,32.58
2018-07-03T19:32:32.649Z,33.21
2018-07-03T19:35:01.375Z,32.43
2018-07-03T19:37:30.092Z,32.74
2018-07-03T19:39:58.971Z,32.88
2018-07-03T19:42:27.827Z,32.13
2018-07-03T19:44:56.631Z,32.45
2018-07-03T19:47:25.440Z,32.76
2018-07-03T19:49:54.231Z,32.29
2018-07-03T19:52:23.406Z,32.52
2018-07-03T19:54:52.221Z,33.08
2018-07-03T19:57:20.952Z,33.35
2018-07-03T19:59:49.871Z,32.46
2018-07-03T20:02:18.557Z,32.84
2018-07-03T20:04:47.357Z,33.09
2018-07-03T20:07:16.194Z,33.49
2018-07-03T20:09:45.020Z,33.31
2018-07-03T20:12:13.882Z,32.79
2018-07-03T20:14:42.908Z,33.16
2018-07-03T20:17:11.762Z,33.76
2018-07-03T20:19:40.582Z,34.30
2018-07-03T20:22:09.326Z,33.85
2018-07-03T20:24:38.116Z,34.76
2018-07-03T20:27:07.005Z,34.03
2018-07-03T20:29:35.668Z,34.00
2018-07-03T20:32:04.441Z,34.07
2018-07-03T20:34:33.169Z,34.21
2018-07-03T20:37:01.926Z,33.91
2018-07-03T20:39:30.829Z,34.56
2018-07-03T20:41:59.529Z,34.26
2018-07-03T20:44:28.535Z,34.74
2018-07-03T20:46:57.872Z,34.32
2018-07-03T20:49:26.562Z,33.96
2018-07-03T20:51:55.607Z,34.51
2018-07-03T20:54:25.343Z,34.94
2018-07-03T20:56:54.359Z,33.97
2018-07-03T20:59:23.493Z,34.55
2018-07-03T21:01:52.230Z,34.43
2018-07-03T21:04:21.173Z,34.60
2018-07-03T21:06:50.161Z,34.83
2018-07-03T21:09:19.201Z,34.27
2018-07-03T21:11:47.913Z,34.35
2018-07-03T21:14:17.021Z,34.59
2018-07-03T21:16:45.707Z,35.01
2018-07-03T21:19:14.733Z,35.42
2018-07-03T21:21:43.471Z,35.52
2018-07-03T21:24:12.307Z,36.20
2018-07-03T21:26:40.918Z,36.61
2018-07-03T21:29:09.686Z,36.91
2018-07-03T21:31:38.440Z,36.49
2018-07-03T21:34:07.159Z,36.82
2018-07-03T21:36:35.847Z,37.50
2018-07-03T21:39:06.130Z,37.91
2018-07-03T21:41:34.722Z,38.44
2018-07-03T21:44:03.487Z,38.76
2018-07-03T21:46:32.197Z,37.91
2018-07-03T21:49:00.941Z,38.56
2018-07-03T21:51:29.628Z,38.41
2018-07-03T21:53:58.688Z,38.17
2018-07-03T21:56:27.406Z,39.19
2018-07-03T21:58:56.506Z,38.73
2018-07-03T22:01:25.508Z,38.32
2018-07-03T22:03:54.294Z,39.25
2018-07-03T22:06:23.181Z,39.13
2018-07-03T22:08:52.174Z,39.54
2018-07-03T22:11:21.239Z,39.20
2018-07-03T22:13:50.218Z,39.39
2018-07-03T22:16:19.018Z,39.69
2018-07-03T22:18:47.900Z,39.01
2018-07-03T22:21:16.555Z,39.69
2018-07-03T22:23:45.186Z,39.73
2018-07-03T22:26:13.897Z,40.29
2018-07-03T22:28:42.610Z,40.96
2018-07-03T22:31:11.280Z,41.00
2018-07-03T22:33:39.926Z,40.81
2018-07-03T22:36:08.619Z,40.91
2018-07-03T22:38:37.316Z,40.81
2018-07-03T22:41:06.057Z,41.04
2018-07-03T22:43:34.798Z,40.97
2018-07-03T22:46:03.502Z,41.57
2018-07-03T23:02:45.663Z,42.92
2018-07-03T23:05:14.834Z,42.38
2018-07-03T23:07:43.598Z,42.87
2018-07-03T23:10:12.656Z,42.72
2018-07-03T23:12:41.308Z,42.43
2018-07-03T23:15:10.264Z,42.61
2018-07-03T23:17:38.920Z,43.33
2018-07-03T23:20:07.697Z,42.64
2018-07-03T23:22:36.299Z,42.49
2018-07-03T23:25:05.019Z,42.37
2018-07-03T23:27:33.734Z,42.99
2018-07-03T23:30:02.632Z,42.40
2018-07-03T23:32:31.292Z,42.95
2018-07-03T23:35:00.093Z,42.40
2018-07-03T23:37:28.848Z,42.82
2018-07-03T23:39:57.535Z,42.42
2018-07-03T23:42:26.213Z,42.09
2018-07-03T23:44:54.900Z,42.01
2018-07-03T23:47:34.786Z,42.47
2018-07-03T23:50:14.801Z,42.35
2018-07-03T23:52:54.766Z,42.23
2018-07-03T23:55:34.506Z,42.14
2018-07-03T23:58:14.279Z,41.86
